Time;durP1;ratioP1;P1;durP2;ratioP2;P2;SDS_P1;SDS_P2;PMS_P1;PMS_P2;Temp;Humidity;BMP_temperature;BMP_pressure;BME280_temperature;BME280_humidity;BME280_pressure;Samples;Min_cycle;Max_cycle;Signal;HPM_P1;HPM_P2
2022/02/03 00:02:12;;;;;;;7.97;3.63;;;3.50;99.90;;;;;;4950703;28;20524;-48
2022/02/03 00:04:45;;;;;;;5.65;4.00;;;3.40;99.90;;;;;;4943046;28;20035;-48
2022/02/03 00:07:17;;;;;;;7.72;4.20;;;3.40;99.90;;;;;;4942840;28;20042;-48
2022/02/03 00:26:07;;;;;;;8.45;4.60;;;3.30;99.90;;;;;;4944426;28;20476;-48
2022/02/03 00:28:41;;;;;;;5.20;3.90;;;3.20;99.90;;;;;;4948048;28;20476;-48
2022/02/03 00:31:21;;;;;;;4.97;3.38;;;3.20;99.90;;;;;;4946219;28;20407;-48
2022/02/03 00:34:02;;;;;;;7.97;4.20;;;3.20;99.90;;;;;;4947781;28;20047;-48
2022/02/03 00:36:42;;;;;;;4.97;3.20;;;3.10;99.90;;;;;;4943918;28;20042;-48
2022/02/03 00:52:23;;;;;;;6.25;4.20;;;3.20;99.90;;;;;;4946716;28;20054;-49
2022/02/03 00:54:49;;;;;;;5.45;4.13;;;3.20;99.90;;;;;;4952171;28;20110;-48
2022/02/03 00:57:43;;;;;;;4.38;3.58;;;3.10;99.90;;;;;;4948710;28;20057;-49
2022/02/03 01:00:11;;;;;;;6.57;3.92;;;3.10;99.90;;;;;;4941770;28;20044;-49
2022/02/03 01:02:59;;;;;;;6.88;3.67;;;3.20;99.90;;;;;;4945963;28;20066;-49
2022/02/03 01:05:28;;;;;;;;;;;3.20;99.90;;;;;;4944365;28;20089;-49
2022/02/03 01:07:56;;;;;;;4.53;3.30;;;3.20;99.90;;;;;;4947133;28;20000;-49
2022/02/03 01:10:28;;;;;;;;;;;3.20;99.90;;;;;;4946786;28;20035;-48
2022/02/03 01:34:55;;;;;;;4.72;3.35;;;3.10;99.90;;;;;;4942300;28;20058;-48
2022/02/03 01:45:15;;;;;;;3.13;2.78;;;3.10;99.90;;;;;;4946869;28;20663;-48
2022/02/03 01:47:54;;;;;;;6.95;3.00;;;3.10;99.90;;;;;;4941253;28;20035;-48
2022/02/03 01:52:52;;;;;;;4.45;2.95;;;3.10;99.90;;;;;;4945457;28;20039;-48
2022/02/03 01:55:24;;;;;;;7.53;2.97;;;3.10;99.90;;;;;;4943857;28;20038;-48
2022/02/03 01:58:13;;;;;;;2.88;2.63;;;3.10;99.90;;;;;;4943252;28;20116;-48
2022/02/03 02:01:00;;;;;;;4.43;2.88;;;3.10;99.90;;;;;;4941731;28;20078;-50
2022/02/03 02:03:39;;;;;;;5.70;3.00;;;3.10;99.90;;;;;;4944086;28;20050;-50
2022/02/03 02:06:08;;;;;;;3.42;2.60;;;3.10;99.90;;;;;;4941964;28;20038;-50
2022/02/03 02:08:55;;;;;;;;;;;3.10;99.90;;;;;;4945350;28;20038;-50
2022/02/03 02:38:39;;;;;;;5.13;3.13;;;2.90;99.90;;;;;;4947831;28;20057;-50
2022/02/03 02:43:09;;;;;;;6.90;3.72;;;3.00;99.90;;;;;;4950693;28;20780;-50
2022/02/03 02:46:14;;;;;;;8.00;4.68;;;3.00;99.90;;;;;;4949378;28;20043;-50
2022/02/03 02:49:01;;;;;;;4.72;4.00;;;3.00;99.90;;;;;;4947299;28;20035;-50
2022/02/03 02:51:38;;;;;;;7.93;4.60;;;3.00;99.90;;;;;;4949820;28;21387;-49
2022/02/03 02:59:49;;;;;;;7.18;3.13;;;3.00;99.90;;;;;;4951451;28;20044;-50
2022/02/03 03:02:45;;;;;;;5.00;3.35;;;3.00;99.90;;;;;;4949520;28;20035;-50
2022/02/03 03:38:10;;;;;;;4.90;3.58;;;3.10;99.90;;;;;;4942856;28;20130;-50
2022/02/03 03:40:40;;;;;;;3.97;3.22;;;3.00;99.90;;;;;;4946608;28;20035;-49
2022/02/03 03:43:18;;;;;;;3.42;2.85;;;3.00;99.90;;;;;;4941744;28;20024;-50
2022/02/03 03:45:51;;;;;;;4.45;3.30;;;2.90;99.90;;;;;;4945091;28;20779;-49
2022/02/03 03:48:18;;;;;;;3.17;2.90;;;3.00;99.90;;;;;;4945715;28;20444;-50
2022/02/03 03:50:52;;;;;;;4.22;3.05;;;3.00;99.90;;;;;;4943477;28;20499;-50
2022/02/03 03:53:36;;;;;;;3.40;2.92;;;3.00;99.90;;;;;;4944410;28;20038;-50
2022/02/03 04:33:38;;;;;;;3.08;2.65;;;3.40;99.90;;;;;;4945757;28;20039;-49
2022/02/03 04:55:13;;;;;;;5.00;3.75;;;3.20;99.90;;;;;;4907110;29;20099;-50
2022/02/03 05:09:38;;;;;;;4.40;3.70;;;3.40;99.90;;;;;;4947887;28;20499;-52
2022/02/03 05:12:33;;;;;;;5.60;3.50;;;3.40;99.90;;;;;;4948399;28;20023;-50
2022/02/03 05:45:22;;;;;;;5.40;4.15;;;3.70;99.90;;;;;;4946824;28;20475;-50
2022/02/03 06:02:42;;;;;;;5.03;3.85;;;3.90;99.90;;;;;;4940830;28;21822;-50
2022/02/03 06:15:20;;;;;;;7.18;4.25;;;4.00;99.90;;;;;;4950722;28;20122;-50
2022/02/03 06:23:28;;;;;;;7.70;4.25;;;4.10;99.90;;;;;;4951102;28;20023;-52
2022/02/03 06:28:44;;;;;;;4.68;3.75;;;4.00;99.90;;;;;;4949983;28;20050;-50
2022/02/03 06:31:09;;;;;;;7.65;4.07;;;4.00;99.90;;;;;;4947121;28;20051;-50
2022/02/03 06:33:35;;;;;;;12.70;4.30;;;4.00;99.90;;;;;;4951916;28;20039;-50
2022/02/03 06:36:01;;;;;;;5.50;3.67;;;4.10;99.90;;;;;;4948892;28;20075;-51
2022/02/03 06:38:26;;;;;;;6.80;3.90;;;4.10;99.90;;;;;;4947501;28;20504;-53
2022/02/03 06:40:52;;;;;;;5.57;3.67;;;4.10;99.90;;;;;;4950413;28;20023;-50
2022/02/03 06:43:18;;;;;;;7.53;4.22;;;4.10;99.90;;;;;;4946753;28;20794;-51
2022/02/03 06:45:48;;;;;;;8.98;4.47;;;4.10;99.90;;;;;;4945860;28;20042;-50
2022/02/03 06:48:18;;;;;;;8.57;5.00;;;4.10;99.90;;;;;;4946994;28;20580;-50
2022/02/03 06:50:50;;;;;;;6.60;4.45;;;4.10;99.90;;;;;;4948272;28;20059;-50
2022/02/03 06:53:20;;;;;;;5.93;4.13;;;4.10;99.90;;;;;;4950004;28;20042;-50
2022/02/03 06:58:50;;;;;;;6.88;4.05;;;4.20;99.90;;;;;;4953922;28;20043;-50
2022/02/03 07:01:40;;;;;;;6.97;4.70;;;4.20;99.90;;;;;;4943326;28;20396;-50
2022/02/03 07:04:11;;;;;;;7.05;4.38;;;4.20;99.90;;;;;;4944259;28;20036;-49
2022/02/03 07:06:37;;;;;;;8.75;4.72;;;4.20;99.90;;;;;;4945752;28;20046;-50
2022/02/03 07:09:07;;;;;;;7.22;5.25;;;4.20;99.90;;;;;;4943615;28;20510;-49
2022/02/03 07:11:33;;;;;;;9.23;4.82;;;4.30;99.90;;;;;;4946251;28;20090;-50
2022/02/03 07:13:58;;;;;;;8.20;4.57;;;4.30;99.90;;;;;;4949731;28;20118;-50
2022/02/03 07:16:24;;;;;;;8.55;4.47;;;4.30;99.90;;;;;;4947919;28;20111;-50
2022/02/03 07:18:50;;;;;;;10.85;5.88;;;4.40;99.90;;;;;;4943878;28;20079;-50
2022/02/03 07:21:15;;;;;;;11.93;6.10;;;4.40;99.90;;;;;;4947311;28;20162;-50
2022/02/03 07:23:41;;;;;;;8.60;5.38;;;4.40;99.90;;;;;;4943957;28;20038;-51
2022/02/03 07:26:07;;;;;;;9.73;6.40;;;4.40;99.90;;;;;;4947945;28;20027;-51
2022/02/03 07:28:34;;;;;;;11.50;6.15;;;4.50;99.90;;;;;;4942653;28;20035;-50
2022/02/03 07:31:00;;;;;;;11.35;5.63;;;4.50;99.90;;;;;;4947246;28;20062;-50
2022/02/03 07:33:26;;;;;;;13.88;6.28;;;4.60;99.90;;;;;;4948588;28;21310;-50
2022/02/03 07:35:51;;;;;;;11.05;6.20;;;4.60;99.90;;;;;;4948490;28;20035;-50
2022/02/03 07:38:21;;;;;;;15.13;6.05;;;4.70;99.90;;;;;;4946454;28;20396;-51
2022/02/03 07:40:48;;;;;;;11.23;6.50;;;4.70;99.90;;;;;;4948071;28;20023;-51
2022/02/03 07:43:14;;;;;;;8.88;5.28;;;4.80;99.90;;;;;;4948938;28;20021;-50
2022/02/03 07:45:40;;;;;;;9.43;5.22;;;4.70;99.90;;;;;;4949842;28;20129;-51
2022/02/03 07:48:05;;;;;;;12.52;6.30;;;4.80;99.90;;;;;;4950330;28;20031;-53
2022/02/03 07:50:31;;;;;;;16.52;8.50;;;4.80;99.90;;;;;;4947424;28;20737;-50
2022/02/03 07:52:57;;;;;;;19.65;11.75;;;4.80;99.90;;;;;;4948915;28;20532;-50
2022/02/03 07:55:22;;;;;;;14.18;8.38;;;4.90;99.90;;;;;;4947624;28;20090;-50
2022/02/03 07:57:53;;;;;;;12.35;7.15;;;4.90;99.90;;;;;;4949187;28;20039;-51
2022/02/03 08:00:21;;;;;;;12.63;6.50;;;5.00;99.90;;;;;;4950010;28;20457;-50
2022/02/03 08:02:47;;;;;;;13.02;7.05;;;5.10;99.90;;;;;;4947001;28;20050;-50
2022/02/03 08:05:16;;;;;;;11.38;6.80;;;5.10;99.90;;;;;;4945560;28;20063;-50
2022/02/03 08:07:49;;;;;;;13.38;6.68;;;5.10;99.90;;;;;;4948689;28;20110;-50
2022/02/03 08:10:28;;;;;;;14.85;7.50;;;5.20;99.90;;;;;;4948428;28;20031;-53
2022/02/03 08:12:55;;;;;;;13.88;7.57;;;5.30;99.90;;;;;;4948129;28;20374;-50
2022/02/03 08:15:23;;;;;;;11.65;7.13;;;5.30;99.90;;;;;;4947220;28;20544;-50
2022/02/03 08:17:51;;;;;;;13.25;6.68;;;5.40;99.90;;;;;;4949262;28;20027;-50
2022/02/03 08:20:19;;;;;;;12.55;7.03;;;5.40;99.90;;;;;;4949250;28;20126;-50
2022/02/03 08:22:52;;;;;;;13.30;6.55;;;5.50;99.90;;;;;;4948307;28;20382;-52
2022/02/03 08:25:22;;;;;;;14.00;7.75;;;5.60;99.90;;;;;;4945861;28;20031;-51
2022/02/03 08:33:00;;;;;;;19.27;9.45;;;5.70;99.90;;;;;;4950455;28;20045;-52
2022/02/03 08:35:44;;;;;;;15.27;7.90;;;5.80;99.90;;;;;;4947744;28;20086;-50
2022/02/03 08:43:17;;;;;;;14.27;6.95;;;5.90;99.90;;;;;;4946108;28;20023;-50
2022/02/03 08:45:43;;;;;;;10.27;6.55;;;6.00;99.90;;;;;;4947141;28;20027;-50
2022/02/03 08:48:11;;;;;;;12.98;6.70;;;6.10;99.90;;;;;;4929100;29;20035;-50
2022/02/03 08:50:37;;;;;;;13.65;6.63;;;6.10;99.90;;;;;;4946918;28;20031;-50
2022/02/03 08:58:35;;;;;;;11.90;6.03;;;6.10;99.90;;;;;;4946687;28;20050;-50
2022/02/03 09:29:10;;;;;;;12.00;5.75;;;6.40;99.90;;;;;;4947319;28;20547;-50
2022/02/03 10:00:31;;;;;;;6.80;3.25;;;6.70;99.90;;;;;;4948469;28;20480;-51
2022/02/03 10:03:04;;;;;;;5.82;3.85;;;6.70;99.90;;;;;;4947889;28;20655;-51
2022/02/03 10:05:40;;;;;;;6.20;3.70;;;6.70;99.90;;;;;;4947266;28;20567;-51
2022/02/03 10:08:12;;;;;;;6.97;3.72;;;6.70;99.90;;;;;;4946999;28;20792;-53
2022/02/03 10:10:39;;;;;;;8.40;4.05;;;6.70;99.90;;;;;;4949447;28;20031;-51
2022/02/03 10:13:22;;;;;;;7.60;4.20;;;6.70;99.90;;;;;;4945488;28;20122;-51
2022/02/03 10:16:03;;;;;;;6.47;3.70;;;6.80;99.90;;;;;;4946840;28;20609;-51
2022/02/03 10:18:30;;;;;;;4.10;3.28;;;6.90;99.90;;;;;;4940445;28;20039;-51
2022/02/03 10:20:57;;;;;;;4.38;3.05;;;6.80;99.90;;;;;;4961141;28;20149;-51
2022/02/03 10:23:25;;;;;;;5.13;2.83;;;6.80;99.90;;;;;;4946620;28;20035;-50
2022/02/03 10:25:56;;;;;;;3.78;2.83;;;6.80;99.90;;;;;;4945639;28;20034;-51
2022/02/03 10:28:24;;;;;;;5.95;3.38;;;6.80;99.90;;;;;;4945746;28;20031;-51
2022/02/03 10:31:00;;;;;;;;;;;6.80;99.90;;;;;;4947036;28;20724;-51
2022/02/03 10:33:32;;;;;;;5.05;3.35;;;7.00;99.90;;;;;;4946448;28;19961;-51
2022/02/03 10:36:03;;;;;;;6.57;3.28;;;7.00;99.90;;;;;;4947766;28;20039;-51
2022/02/03 10:39:18;;;;;;;5.53;3.22;;;7.10;99.90;;;;;;4947568;28;20039;-52
2022/02/03 10:47:04;;;;;;;5.15;3.05;;;7.20;99.90;;;;;;4943409;28;20043;-51
2022/02/03 10:55:19;;;;;;;4.80;3.40;;;7.30;99.90;;;;;;4948613;28;20062;-52
2022/02/03 11:00:52;;;;;;;5.13;3.33;;;7.50;99.90;;;;;;4949824;28;20126;-51
2022/02/03 11:11:22;;;;;;;4.30;2.95;;;7.60;99.90;;;;;;4949977;28;20039;-51
2022/02/03 11:13:50;;;;;;;4.75;2.97;;;7.60;99.90;;;;;;4952054;28;20066;-52
2022/02/03 11:16:17;;;;;;;6.07;3.35;;;7.60;99.90;;;;;;4947025;28;20142;-51
2022/02/03 11:18:45;;;;;;;3.33;2.60;;;7.60;99.90;;;;;;4948831;28;20496;-51
2022/02/03 11:21:13;;;;;;;4.57;2.92;;;7.60;99.90;;;;;;4949454;28;20066;-51
2022/02/03 11:23:46;;;;;;;2.95;2.55;;;7.70;99.90;;;;;;4943382;28;20488;-53
2022/02/03 11:42:36;;;;;;;;;;;7.80;99.90;;;;;;4950819;28;20030;-50
2022/02/03 11:48:20;;;;;;;4.07;2.38;;;7.80;99.90;;;;;;4945542;28;20027;-51
2022/02/03 11:51:24;;;;;;;3.47;2.83;;;7.80;99.90;;;;;;4950676;28;20039;-51
2022/02/03 11:54:26;;;;;;;5.18;3.15;;;7.90;99.90;;;;;;4949655;28;20134;-51
2022/02/03 12:02:53;;;;;;;5.40;3.05;;;8.10;99.90;;;;;;4944708;28;20458;-51
2022/02/03 12:05:45;;;;;;;4.50;2.78;;;8.10;99.90;;;;;;4947034;28;20035;-50
2022/02/03 12:22:02;;;;;;;4.53;3.10;;;8.30;99.90;;;;;;4950339;28;20062;-50
2022/02/03 12:24:36;;;;;;;6.45;3.42;;;8.40;99.90;;;;;;4948471;28;20046;-50
2022/02/03 12:30:37;;;;;;;5.07;3.10;;;8.40;99.90;;;;;;4945398;28;20528;-52
2022/02/03 12:38:22;;;;;;;3.42;2.60;;;8.40;99.90;;;;;;4930543;29;20037;-50
2022/02/03 12:40:58;;;;;;;3.97;2.65;;;8.40;99.90;;;;;;4926219;29;20031;-51
2022/02/03 12:43:35;;;;;;;3.60;2.30;;;8.40;99.90;;;;;;4929484;28;20032;-51
2022/02/03 12:46:02;;;;;;;2.72;2.40;;;8.40;99.90;;;;;;4923798;29;20039;-51
2022/02/03 12:48:31;;;;;;;3.22;2.42;;;8.50;99.90;;;;;;4928643;29;20058;-51
2022/02/03 12:50:57;;;;;;;4.20;2.47;;;8.50;99.90;;;;;;4923962;29;20031;-51
2022/02/03 12:53:32;;;;;;;4.35;2.47;;;8.50;99.90;;;;;;4929355;29;20024;-51
2022/02/03 12:55:58;;;;;;;3.35;2.60;;;8.40;99.90;;;;;;4930413;29;20023;-51
2022/02/03 12:58:26;;;;;;;5.20;2.53;;;8.40;99.90;;;;;;4930526;28;20034;-50
2022/02/03 13:00:59;;;;;;;3.60;2.97;;;8.50;99.90;;;;;;4932582;28;20488;-51
2022/02/03 13:03:38;;;;;;;4.60;2.60;;;8.50;99.90;;;;;;4947497;28;20039;-50
2022/02/03 13:06:08;;;;;;;3.88;2.63;;;8.60;99.90;;;;;;4948043;28;20035;-51
2022/02/03 13:08:59;;;;;;;3.65;2.75;;;8.70;99.90;;;;;;4948186;28;20077;-52
2022/02/03 13:11:34;;;;;;;2.63;2.20;;;8.70;99.90;;;;;;4942312;28;20050;-50
2022/02/03 13:17:08;;;;;;;4.05;2.78;;;8.80;99.90;;;;;;4945374;28;20047;-50
2022/02/03 13:22:34;;;;;;;3.75;2.40;;;8.80;99.90;;;;;;4944923;28;20039;-50
2022/02/03 13:25:11;;;;;;;2.55;2.35;;;8.80;99.90;;;;;;4945582;28;20027;-50
2022/02/03 13:31:04;;;;;;;4.63;3.10;;;8.80;99.90;;;;;;4948687;28;20389;-50
2022/02/03 13:33:44;;;;;;;3.47;2.50;;;8.80;99.90;;;;;;4886171;29;20048;-50
2022/02/03 13:36:20;;;;;;;2.60;2.40;;;8.80;99.90;;;;;;4945684;28;20039;-50
2022/02/03 13:39:00;;;;;;;2.38;2.17;;;8.80;99.90;;;;;;4948787;28;20059;-50
2022/02/03 13:41:29;;;;;;;2.20;2.00;;;8.80;99.90;;;;;;4942405;28;20039;-50
2022/02/03 13:43:55;;;;;;;2.55;2.35;;;8.80;99.90;;;;;;4945822;28;20042;-49
2022/02/03 13:46:44;;;;;;;2.83;2.50;;;8.80;99.90;;;;;;4945064;28;20476;-50
2022/02/03 13:49:16;;;;;;;2.95;1.65;;;8.90;99.90;;;;;;4946684;28;20058;-49
2022/02/03 13:51:43;;;;;;;1.90;1.70;;;8.90;99.90;;;;;;4947617;28;20028;-50
2022/02/03 13:54:36;;;;;;;2.15;1.70;;;8.90;99.90;;;;;;4944103;28;20039;-51
2022/02/03 14:16:26;;;;;;;2.65;1.90;;;8.90;99.90;;;;;;4944479;28;20023;-49
2022/02/03 14:21:45;;;;;;;2.08;1.88;;;8.90;99.90;;;;;;4939397;28;20039;-49
2022/02/03 14:27:21;;;;;;;1.60;1.40;;;8.90;99.90;;;;;;4942786;28;20554;-49
2022/02/03 14:29:50;;;;;;;2.63;1.73;;;8.90;99.90;;;;;;4946826;28;20019;-50
2022/02/03 14:32:26;;;;;;;2.03;1.75;;;8.90;99.90;;;;;;4944646;28;20079;-52
2022/02/03 14:34:52;;;;;;;1.85;1.52;;;8.90;99.90;;;;;;4949817;28;20277;-49
2022/02/03 14:37:36;;;;;;;2.08;1.42;;;8.90;99.90;;;;;;4948237;28;20086;-49
2022/02/03 14:42:37;;;;;;;2.20;1.77;;;8.90;99.90;;;;;;4950244;28;20031;-49
2022/02/03 14:45:05;;;;;;;2.00;1.80;;;8.90;99.90;;;;;;4948029;28;20094;-49
2022/02/03 14:47:32;;;;;;;1.90;1.80;;;8.90;99.90;;;;;;4948295;28;20065;-51
2022/02/03 14:50:01;;;;;;;1.65;1.55;;;8.90;99.90;;;;;;4948998;28;20728;-51
2022/02/03 14:52:32;;;;;;;21.05;18.92;;;8.80;99.90;;;;;;4948922;28;20118;-51
2022/02/03 15:00:28;;;;;;;15.05;13.55;;;8.80;99.90;;;;;;4948158;28;20038;-50
2022/02/03 15:02:55;;;;;;;14.40;12.50;;;8.80;99.90;;;;;;4950573;28;20544;-51
2022/02/03 15:05:33;;;;;;;9.88;5.88;;;8.80;99.90;;;;;;4949479;28;20115;-50
2022/02/03 15:08:03;;;;;;;4.97;4.18;;;8.80;99.90;;;;;;4947035;28;20519;-52
2022/02/03 15:10:42;;;;;;;2.72;2.40;;;8.70;99.90;;;;;;4948310;28;20117;-50
2022/02/03 15:13:30;;;;;;;3.35;2.90;;;8.70;99.90;;;;;;4946950;28;20030;-50
2022/02/03 15:15:56;;;;;;;6.88;5.97;;;8.70;99.90;;;;;;4948016;28;20027;-51
2022/02/03 15:18:21;;;;;;;4.18;2.75;;;8.80;99.90;;;;;;4950484;28;20050;-51
2022/02/03 15:20:47;;;;;;;3.25;2.20;;;8.70;99.90;;;;;;4945987;28;20043;-52
2022/02/03 15:23:12;;;;;;;3.00;2.20;;;8.70;99.90;;;;;;4943650;28;20031;-51
2022/02/03 15:25:38;;;;;;;1.98;1.73;;;8.70;99.90;;;;;;4949867;28;20038;-51
2022/02/03 15:28:04;;;;;;;2.63;1.30;;;8.70;99.90;;;;;;4950620;28;20036;-51
2022/02/03 15:30:30;;;;;;;1.88;1.55;;;8.70;99.90;;;;;;4946304;28;20113;-51
2022/02/03 15:32:56;;;;;;;1.85;1.35;;;8.70;99.90;;;;;;4943591;28;20094;-51
2022/02/03 15:37:57;;;;;;;1.40;1.30;;;8.70;99.90;;;;;;4948930;28;20504;-51
2022/02/03 15:40:25;;;;;;;3.53;2.33;;;8.70;99.90;;;;;;4944041;28;20093;-51
2022/02/03 15:42:58;;;;;;;;;;;8.60;99.90;;;;;;4946862;28;20066;-50
2022/02/03 15:45:24;;;;;;;4.45;1.92;;;8.50;99.90;;;;;;4945288;28;19914;-52
2022/02/03 15:47:56;;;;;;;2.90;2.53;;;8.50;99.90;;;;;;4950902;28;20035;-50
2022/02/03 16:04:07;;;;;;;2.00;1.67;;;8.10;99.90;;;;;;4950560;28;20125;-50
2022/02/03 16:16:01;;;;;;;7.95;5.05;;;8.00;99.90;;;;;;4949669;28;20111;-50
2022/02/03 16:17:50;;;;;;;9.05;6.15;;;8.10;99.90;;;;;;4948781;28;20035;-51
2022/02/03 16:20:23;;;;;;;40.80;25.48;;;8.00;99.90;;;;;;4948500;28;20562;-51
2022/02/03 16:23:11;;;;;;;8.10;5.72;;;8.00;99.90;;;;;;4949583;28;20521;-52
2022/02/03 16:53:01;;;;;;;12.05;5.50;;;7.30;99.90;;;;;;4946646;28;20038;-50
2022/02/03 16:55:33;;;;;;;6.60;3.22;;;7.30;99.90;;;;;;4949439;28;20087;-50
2022/02/03 16:58:01;;;;;;;6.45;3.22;;;7.10;99.90;;;;;;4948104;28;20122;-50
2022/02/03 17:00:27;;;;;;;5.60;2.65;;;7.00;99.90;;;;;;4947048;28;20049;-50
2022/02/03 17:02:53;;;;;;;5.28;2.75;;;7.00;99.90;;;;;;4939513;28;20034;-52
2022/02/03 17:05:21;;;;;;;6.93;2.97;;;7.00;99.90;;;;;;4950309;28;20015;-50
2022/02/03 17:07:47;;;;;;;8.80;3.47;;;7.00;99.90;;;;;;4941002;28;20119;-50
2022/02/03 17:10:13;;;;;;;4.22;3.55;;;6.90;99.90;;;;;;4950778;28;20035;-50
2022/02/03 17:12:39;;;;;;;7.75;3.30;;;6.90;99.90;;;;;;4946121;28;20130;-50
2022/02/03 17:15:06;;;;;;;4.40;3.28;;;6.90;99.90;;;;;;4942114;28;20533;-51
2022/02/03 17:17:31;;;;;;;4.65;2.67;;;7.00;99.90;;;;;;4949439;28;20034;-50
2022/02/03 17:19:57;;;;;;;3.40;2.20;;;6.80;99.90;;;;;;4950819;28;20477;-51
2022/02/03 17:22:37;;;;;;;1.80;1.70;;;6.50;99.90;;;;;;4946841;29;20035;-50
2022/02/03 17:25:09;;;;;;;2.70;1.75;;;6.40;99.90;;;;;;4947623;28;20019;-50
2022/02/03 17:27:51;;;;;;;4.03;2.63;;;6.30;99.90;;;;;;4947387;28;20078;-50
2022/02/03 17:30:33;;;;;;;5.80;2.90;;;6.20;99.90;;;;;;4941463;28;20031;-50
2022/02/03 18:51:24;;;;;;;11.77;6.13;;;6.10;99.90;;;;;;4950916;28;20034;-50
2022/02/03 18:56:32;;;;;;;8.70;5.20;;;6.10;99.90;;;;;;4943140;28;20027;-50
2022/02/03 19:23:44;;;;;;;7.30;5.10;;;6.00;99.90;;;;;;4947091;28;20381;-50
2022/02/03 20:04:01;;;;;;;4.30;3.60;;;6.00;99.90;;;;;;4942370;28;20528;-50
2022/02/03 20:11:43;;;;;;;5.40;3.50;;;6.00;99.90;;;;;;4942103;28;20037;-50
2022/02/03 20:14:13;;;;;;;3.90;3.25;;;6.00;99.90;;;;;;4944322;28;20039;-50
2022/02/03 20:16:40;;;;;;;4.78;3.78;;;6.00;99.90;;;;;;4939328;28;20113;-50
2022/02/03 20:19:05;;;;;;;6.43;3.35;;;6.00;99.90;;;;;;4942477;28;20039;-50
2022/02/03 20:21:34;;;;;;;6.03;3.60;;;6.00;99.90;;;;;;4938857;28;20564;-49
2022/02/03 20:24:00;;;;;;;6.45;4.15;;;6.00;99.90;;;;;;4943887;28;20042;-49
2022/02/03 20:26:26;;;;;;;6.38;3.85;;;6.00;99.90;;;;;;4938939;28;20127;-49
2022/02/03 20:28:51;;;;;;;4.53;3.70;;;6.00;99.90;;;;;;4939818;28;20150;-50
2022/02/03 20:31:17;;;;;;;4.88;3.38;;;6.00;99.90;;;;;;4941089;28;20047;-51
2022/02/03 20:33:43;;;;;;;9.93;6.18;;;6.00;99.90;;;;;;4941328;28;20070;-50
2022/02/03 20:36:10;;;;;;;11.45;5.40;;;6.00;99.90;;;;;;4938880;28;20031;-50
2022/02/03 20:38:35;;;;;;;6.75;4.00;;;6.00;99.90;;;;;;4939991;28;20766;-50
2022/02/03 20:41:02;;;;;;;5.50;3.53;;;6.00;99.90;;;;;;4940586;28;20035;-51
2022/02/03 20:43:27;;;;;;;5.57;4.28;;;5.90;99.90;;;;;;4940692;28;20053;-49
2022/02/03 20:45:53;;;;;;;5.18;3.80;;;6.00;99.90;;;;;;4940503;28;20035;-50
2022/02/03 20:48:19;;;;;;;8.40;4.30;;;6.00;99.90;;;;;;4943612;28;20102;-51
2022/02/03 20:50:46;;;;;;;6.22;4.22;;;6.00;99.90;;;;;;4942556;28;20117;-50
2022/02/03 20:53:13;;;;;;;8.23;5.53;;;6.00;99.90;;;;;;4947937;28;20027;-52
2022/02/03 20:55:45;;;;;;;6.03;3.90;;;6.00;99.90;;;;;;4937668;28;20102;-50
2022/02/03 20:58:15;;;;;;;7.22;4.07;;;6.00;99.90;;;;;;4939551;28;20027;-51
2022/02/03 21:00:45;;;;;;;8.20;5.35;;;6.00;99.90;;;;;;4946310;28;20126;-51
2022/02/03 21:05:43;;;;;;;7.47;4.80;;;5.90;99.90;;;;;;4943946;28;20027;-51
2022/02/03 21:08:09;;;;;;;5.85;4.00;;;5.90;99.90;;;;;;4943147;28;20118;-50
2022/02/03 21:10:35;;;;;;;7.20;4.57;;;5.90;99.90;;;;;;4943979;28;20045;-50
2022/02/03 21:13:01;;;;;;;9.77;5.85;;;5.90;99.90;;;;;;4945382;28;20027;-51
2022/02/03 21:15:32;;;;;;;9.90;5.45;;;5.80;99.90;;;;;;4940592;28;20617;-49
2022/02/03 21:18:02;;;;;;;6.65;4.28;;;5.80;99.90;;;;;;4930868;28;20086;-49
2022/02/03 21:20:28;;;;;;;6.95;4.78;;;5.80;99.90;;;;;;4943000;28;20039;-50
2022/02/03 21:22:54;;;;;;;5.13;4.20;;;5.80;99.90;;;;;;4930948;28;20473;-50
2022/02/03 21:25:27;;;;;;;7.03;3.67;;;5.70;99.90;;;;;;4932462;28;20031;-49
2022/02/03 21:27:56;;;;;;;6.63;4.18;;;5.60;99.90;;;;;;4931338;28;20211;-51
2022/02/03 21:30:23;;;;;;;4.35;3.58;;;5.50;99.90;;;;;;4934688;28;20165;-49
2022/02/03 21:32:49;;;;;;;4.50;4.00;;;5.50;99.90;;;;;;4928837;28;20043;-50
2022/02/03 21:35:18;;;;;;;5.88;4.20;;;5.50;99.90;;;;;;4932479;28;20039;-51
2022/02/03 21:37:44;;;;;;;;;;;5.40;99.90;;;;;;4915975;28;20495;-50
2022/02/03 21:40:10;;;;;;;4.85;3.70;;;5.40;99.90;;;;;;4929861;28;20021;-50
2022/02/03 21:42:36;;;;;;;8.25;4.53;;;5.40;99.90;;;;;;4931284;28;20039;-50
2022/02/03 21:45:04;;;;;;;6.65;4.05;;;5.30;99.90;;;;;;4932676;28;20664;-50
2022/02/03 21:47:30;;;;;;;7.20;4.20;;;5.40;99.90;;;;;;4930784;28;20500;-50
2022/02/03 21:49:59;;;;;;;8.20;5.03;;;5.30;99.90;;;;;;4930837;28;20047;-51
2022/02/03 21:52:33;;;;;;;5.95;4.28;;;5.20;99.90;;;;;;4931189;28;20031;-51
2022/02/03 21:55:00;;;;;;;6.03;4.45;;;5.10;99.90;;;;;;4931721;28;20046;-51
2022/02/03 21:57:26;;;;;;;6.72;4.05;;;5.10;99.90;;;;;;4932474;28;20035;-50
2022/02/03 21:59:52;;;;;;;5.47;3.80;;;5.00;99.90;;;;;;4939770;28;20497;-50
2022/02/03 22:02:19;;;;;;;6.32;3.85;;;5.00;99.90;;;;;;4932255;28;20154;-50
2022/02/03 22:04:45;;;;;;;5.88;4.20;;;4.90;99.90;;;;;;4931757;28;20900;-50
2022/02/03 22:07:10;;;;;;;5.30;3.65;;;5.00;99.90;;;;;;4915702;28;20552;-50
2022/02/03 22:09:38;;;;;;;5.53;3.65;;;4.80;99.90;;;;;;4936483;28;20042;-50
2022/02/03 22:12:05;;;;;;;7.97;4.72;;;4.80;99.90;;;;;;4932018;28;21231;-50
2022/02/03 22:14:32;;;;;;;9.88;5.85;;;4.80;99.90;;;;;;4933531;28;20035;-50
2022/02/03 22:16:59;;;;;;;9.77;6.13;;;4.70;99.90;;;;;;4932271;28;20118;-50
2022/02/03 22:19:27;;;;;;;13.75;6.55;;;4.80;99.90;;;;;;4932071;28;20028;-50
2022/02/03 22:38:41;;;;;;;5.13;4.05;;;4.70;99.90;;;;;;4932087;28;20042;-50
2022/02/03 22:49:03;;;;;;;8.48;4.97;;;4.70;99.90;;;;;;4934828;28;20047;-49
2022/02/03 22:51:29;;;;;;;6.50;4.50;;;4.70;99.90;;;;;;4930777;28;20032;-49
2022/02/03 22:53:54;;;;;;;5.85;4.30;;;4.60;99.90;;;;;;4948184;28;20051;-50
2022/02/03 22:56:20;;;;;;;6.43;4.03;;;4.60;99.90;;;;;;4950556;28;20027;-49
2022/02/03 23:01:25;;;;;;;8.38;4.63;;;4.40;99.90;;;;;;4947012;28;20118;-49
2022/02/03 23:03:51;;;;;;;8.57;4.53;;;4.30;99.90;;;;;;4935540;29;20467;-50
2022/02/03 23:06:17;;;;;;;6.25;4.35;;;4.20;99.90;;;;;;4950312;28;20031;-49
2022/02/03 23:19:03;;;;;;;7.05;5.38;;;4.40;99.90;;;;;;4937706;28;20039;-49
2022/02/03 23:24:05;;;;;;;8.15;4.57;;;4.20;99.90;;;;;;4933425;28;20040;-49
2022/02/03 23:26:31;;;;;;;9.98;5.40;;;4.20;99.90;;;;;;4950725;28;20039;-49
2022/02/03 23:29:03;;;;;;;6.03;4.30;;;4.10;99.90;;;;;;4952075;28;20031;-49
2022/02/03 23:31:49;;;;;;;4.57;3.92;;;4.10;99.90;;;;;;4933036;28;20035;-49
2022/02/03 23:34:15;;;;;;;7.82;4.53;;;4.10;99.90;;;;;;4921281;28;20067;-50
2022/02/03 23:36:41;;;;;;;4.40;3.83;;;4.20;99.90;;;;;;4934887;28;20152;-49
2022/02/03 23:39:23;;;;;;;7.00;4.03;;;4.20;99.90;;;;;;4920529;28;20043;-49
2022/02/03 23:44:50;;;;;;;5.78;3.72;;;4.30;99.90;;;;;;4934739;28;20551;-49
